Latest Weather Observations for Tewantin

IDQ60801

Issued at 7:02 pm EST Saturday 29 August 2015 (issued every 30 minutes, with the page automatically refreshed every 10 minutes)

About weather observations | Map of weather stations | Latest weather observations for QLD | Other Formats
Station Details ID: 040908 Name: TEWANTIN RSL PARK Lat: -26.39 Lon: 153.04 Height: 6.4 m
Data from the previous 72 hours. | See also: Recent months at Tewantin
Date/Time
EST
Temp
°C
App
Temp
°C
Dew
Point
Rel
Hum
%
Delta-T
°C
Wind Press
QNH
hPa
Press
MSL
hPa
Rain
since 9 am
mm
Dir
 
Spd
km/h
Gust
km/h
Spd
kts
Gust
kts
29/07:00pm 17.5 16.9 15.7 89 1.1 SW 13 19 7 10 1019.4 1019.4 3.4
29/06:30pm 20.1 22.2 17.1 83 1.8 E 2 7 1 4 1018.0 1018.0 0.6
29/06:00pm 20.4 22.2 16.4 78 2.4 E 2 9 1 5 1018.0 1018.0 0.0
29/05:30pm 20.4 21.4 16.8 80 2.2 S 7 9 4 5 1017.7 1017.7 0.0
29/05:00pm 20.2 20.5 16.0 77 2.5 ESE 9 13 5 7 1017.3 1017.3 0.0
29/04:30pm 20.5 21.2 16.1 76 2.6 SSE 7 11 4 6 1017.8 1017.8 0.0
29/04:00pm 20.7 20.9 15.7 73 3.0 ESE 9 13 5 7 1018.0 1018.0 0.0
29/03:30pm 20.7 21.2 15.5 72 3.1 SSE 7 13 4 7 1017.9 1017.9 0.0
29/03:00pm 20.6 20.6 15.2 71 3.2 SSE 9 15 5 8 1018.4 1018.4 0.0
29/02:30pm 20.8 20.5 15.4 71 3.2 SSE 11 17 6 9 1018.9 1018.9 0.0
29/02:00pm 20.7 20.5 14.8 69 3.5 SSE 9 15 5 8 1019.2 1019.2 0.0
29/01:30pm 21.1 20.9 15.6 71 3.3 SE 11 17 6 9 1019.6 1019.6 0.0
29/01:00pm 20.9 20.9 15.2 70 3.4 SSE 9 15 5 8 1020.4 1020.4 0.0
29/12:30pm 20.6 20.5 14.9 70 3.3 SSE 9 15 5 8 1020.8 1020.8 0.0
29/12:00pm 21.0 20.8 14.6 67 3.7 SE 9 17 5 9 1021.2 1021.2 0.0
29/11:30am 21.4 20.4 14.6 65 4.0 ESE 13 20 7 11 1021.6 1021.6 0.0
29/11:00am 21.9 21.6 15.5 67 3.8 ESE 11 17 6 9 1021.6 1021.6 0.0
29/10:30am 21.6 21.2 15.2 67 3.8 SE 11 20 6 11 1022.0 1022.0 0.0
29/10:00am 21.3 21.2 14.9 67 3.8 SE 9 15 5 8 1022.3 1022.3 0.0
29/09:30am 21.0 21.2 14.6 67 3.7 SSE 7 13 4 7 1022.6 1022.6 0.0
29/09:00am 20.0 19.5 13.9 68 3.5 SSW 9 13 5 7 1022.8 1022.8 0.2
29/08:30am 19.0 18.2 13.0 68 3.4 S 9 15 5 8 1022.6 1022.6 0.2
29/08:00am 17.8 16.9 12.5 71 2.9 S 9 13 5 7 1022.4 1022.4 0.2
29/07:30am 16.9 16.7 13.0 78 2.2 SSW 6 11 3 6 1022.4 1022.4 0.2
29/07:00am 15.8 15.4 12.5 81 1.8 S 6 9 3 5 1022.1 1022.1 0.2
29/06:30am 15.6 15.6 12.5 82 1.7 SSE 4 9 2 5 1021.8 1021.8 0.2
29/06:00am 15.9 15.6 13.2 84 1.5 S 7 13 4 7 1021.9 1021.9 0.2
29/05:30am 15.4 15.4 12.5 83 1.6 S 4 7 2 4 1021.1 1021.1 0.2
29/05:00am 15.7 15.2 12.5 81 1.8 S 7 9 4 5 1020.9 1020.9 0.2
29/04:30am 16.0 16.8 12.7 81 1.8 CALM 0 0 0 0 1020.8 1020.8 0.2
29/04:00am 16.1 15.9 13.0 82 1.7 S 6 9 3 5 1020.8 1020.8 0.2
29/03:30am 16.3 16.2 13.4 83 1.6 SSW 6 9 3 5 1021.0 1021.0 0.2
29/03:00am 16.3 16.3 13.6 84 1.5 SSW 6 13 3 7 1021.1 1021.1 0.2
29/02:30am 16.4 16.2 13.5 83 1.6 S 7 11 4 6 1021.3 1021.3 0.2
29/02:00am 16.7 16.1 13.6 82 1.7 SSW 9 13 5 7 1021.5 1021.5 0.2
29/01:30am 16.8 17.0 14.6 87 1.3 S 7 13 4 7 1021.4 1021.4 0.2
29/01:00am 16.5 17.0 15.0 91 0.9 SW 6 9 3 5 1022.1 1022.1 0.2
29/12:30am 16.6 17.0 15.3 92 0.8 S 7 11 4 6 1021.7 1021.7 0.2
29/12:00am 16.4 17.0 15.3 93 0.6 SSW 6 7 3 4 1021.9 1021.9 0.2
 
Date/Time
EST
Temp
°C
App
Temp
°C
Dew
Point
Rel
Hum
%
Delta-T
°C
Wind Press
QNH
hPa
Press
MSL
hPa
Rain
since 9 am
mm
Dir
 
Spd
km/h
Gust
km/h
Spd
kts
Gust
kts
28/11:30pm 16.2 16.7 15.1 93 0.6 S 6 9 3 5 1021.9 1021.9 0.2
28/11:00pm 16.0 16.8 14.9 93 0.6 SSW 4 7 2 4 1022.0 1022.0 0.2
28/10:30pm 16.1 17.3 14.8 92 0.7 S 2 7 1 4 1021.9 1021.9 0.2
28/10:00pm 16.7 17.2 15.1 90 0.9 S 6 9 3 5 1021.9 1021.9 0.2
28/09:30pm 16.4 18.0 14.8 90 0.9 CALM 0 6 0 3 1022.2 1022.2 0.2
28/09:00pm 17.1 17.7 15.3 89 1.0 S 6 9 3 5 1022.1 1022.1 0.2
28/08:30pm 17.1 17.8 15.6 91 0.9 SSW 6 11 3 6 1021.9 1021.9 0.2
28/08:00pm 17.0 17.7 15.5 91 0.9 SSW 6 9 3 5 1021.7 1021.7 0.2
28/07:30pm 17.5 18.1 15.3 87 1.3 SSW 6 7 3 4 1021.2 1021.2 0.2
28/07:00pm 17.8 18.1 15.1 84 1.6 SW 7 7 4 4 1020.7 1020.7 0.2
28/06:30pm 18.5 19.8 15.2 81 1.9 SSW 2 7 1 4 1020.2 1020.2 0.2
28/06:00pm 19.2 19.4 14.7 75 2.6 S 7 9 4 5 1019.7 1019.7 0.2
28/05:30pm 19.4 19.4 14.2 72 3.0 ESE 7 11 4 6 1019.5 1019.5 0.2
28/05:00pm 19.9 19.4 13.8 68 3.5 ESE 9 15 5 8 1019.3 1019.3 0.2
28/04:30pm 20.0 19.2 13.9 68 3.5 ESE 11 19 6 10 1019.1 1019.1 0.2
28/04:00pm 20.1 18.5 14.0 68 3.5 ESE 15 20 8 11 1018.9 1018.9 0.2
28/03:30pm 20.4 19.3 14.3 68 3.5 ESE 13 19 7 10 1018.8 1018.8 0.2
28/03:00pm 20.4 18.5 14.3 68 3.5 ESE 17 26 9 14 1018.8 1018.8 0.2
28/02:30pm 20.6 19.6 14.7 69 3.5 SE 13 22 7 12 1018.9 1018.9 0.2
28/02:00pm 20.4 19.1 14.7 70 3.3 ESE 15 22 8 12 1019.1 1019.1 0.2
28/01:30pm 21.5 20.5 15.6 69 3.5 SE 15 20 8 11 1019.2 1019.2 0.2
28/01:00pm 21.1 20.8 15.4 70 3.4 SE 11 19 6 10 1019.6 1019.6 0.2
28/12:30pm 20.9 20.6 16.5 76 2.7 E 13 19 7 10 1020.0 1020.0 0.2
28/12:00pm 21.8 22.9 17.0 74 2.9 E 7 11 4 6 1020.3 1020.3 0.2
28/11:30am 21.3 21.9 16.7 75 2.8 ESE 9 13 5 7 1020.8 1020.8 0.2
28/11:00am 21.6 23.1 17.6 78 2.5 E 6 7 3 4 1021.5 1021.5 0.0
28/10:30am 21.4 23.2 18.4 83 1.9 S 6 9 3 5 1022.0 1022.0 0.0
28/10:00am 19.7 22.0 17.8 89 1.2 SSE 2 7 1 4 1022.3 1022.3 0.0
28/09:30am 18.9 20.4 17.6 92 0.8 SE 6 7 3 4 1022.1 1022.1 0.0
28/09:00am 18.4 20.4 17.9 97 0.3 SSE 4 7 2 4 1022.4 1022.4 17.6
28/08:30am 18.2 20.3 18.0 99 0.1 SSW 4 9 2 5 1022.2 1022.2 17.6
28/08:00am 17.5 20.0 17.3 99 0.1 CALM 0 0 0 0 1021.9 1021.9 17.6
28/07:30am 17.3 19.0 17.1 99 0.1 SSW 4 7 2 4 1021.5 1021.5 17.6
28/07:00am 17.1 18.7 16.9 99 0.1 S 4 9 2 5 1021.4 1021.4 17.2
28/06:30am 16.9 18.4 16.7 99 0.1 SW 4 7 2 4 1021.0 1021.0 17.2
28/06:00am 17.0 19.3 16.8 99 0.1 CALM 0 0 0 0 1020.2 1020.2 17.2
28/05:30am 16.8 18.7 16.6 99 0.1 W 2 6 1 3 1020.2 1020.2 17.2
28/05:00am 16.8 17.9 16.6 99 0.1 SW 6 9 3 5 1020.1 1020.1 17.2
28/04:30am 16.9 19.2 16.7 99 0.1 CALM 0 6 0 3 1020.0 1020.0 16.2
28/04:00am 16.9 19.2 16.7 99 0.1 CALM 0 6 0 3 1019.9 1019.9 16.2
28/03:30am 16.8 19.0 16.6 99 0.1 CALM 0 0 0 0 1019.7 1019.7 16.2
28/03:00am 16.8 17.9 16.6 99 0.1 SSW 6 7 3 4 1019.8 1019.8 16.2
28/02:30am 17.1 18.7 16.9 99 0.1 SSW 4 7 2 4 1019.9 1019.9 16.2
28/02:00am 16.9 19.2 16.7 99 0.1 CALM 0 0 0 0 1020.2 1020.2 16.2
28/01:30am 16.9 19.2 16.7 99 0.1 CALM 0 0 0 0 1020.6 1020.6 16.2
28/01:00am 16.9 19.2 16.7 99 0.1 CALM 0 0 0 0 1020.8 1020.8 16.2
28/12:30am 16.8 19.0 16.6 99 0.1 CALM 0 0 0 0 1020.9 1020.9 16.2
28/12:00am 16.8 18.7 16.6 99 0.1 SSW 2 6 1 3 1021.3 1021.3 16.2
 
Date/Time
EST
Temp
°C
App
Temp
°C
Dew
Point
Rel
Hum
%
Delta-T
°C
Wind Press
QNH
hPa
Press
MSL
hPa
Rain
since 9 am
mm
Dir
 
Spd
km/h
Gust
km/h
Spd
kts
Gust
kts
27/11:30pm 16.7 17.6 16.5 99 0.1 WSW 7 13 4 7 1021.4 1021.4 16.2
27/11:00pm 16.3 17.2 16.1 99 0.1 SW 6 9 3 5 1020.9 1020.9 16.0
27/10:30pm 16.2 18.2 16.0 99 0.1 CALM 0 0 0 0 1020.5 1020.5 16.0
27/10:00pm 16.3 18.0 16.1 99 0.1 N 2 7 1 4 1021.1 1021.1 16.0
27/09:30pm 16.2 18.2 16.0 99 0.1 CALM 0 0 0 0 1021.2 1021.2 16.0
27/09:00pm 16.2 17.1 16.0 99 0.1 WSW 6 9 3 5 1021.8 1021.8 16.0
27/08:30pm 16.2 17.1 16.0 99 0.1 WNW 6 7 3 4 1021.6 1021.6 16.0
27/08:00pm 16.2 17.8 16.0 99 0.1 WNW 2 7 1 4 1021.6 1021.6 15.8
27/07:30pm 16.2 17.1 16.0 99 0.1 W 6 9 3 5 1021.4 1021.4 15.4
27/07:00pm 16.3 18.3 16.1 99 0.1 CALM 0 6 0 3 1021.1 1021.1 15.4
27/06:30pm 16.5 18.2 16.3 99 0.1 ENE 2 9 1 5 1021.2 1021.2 14.2
27/06:00pm 16.1 17.7 15.9 99 0.1 S 2 9 1 5 1020.8 1020.8 14.2
27/05:30pm 15.9 16.1 15.7 99 0.1 SSE 9 13 5 7 1020.4 1020.4 13.8
27/05:00pm 16.4 16.8 16.2 99 0.1 S 9 15 5 8 1020.3 1020.3 13.0
27/04:30pm 16.4 16.0 16.2 99 0.1 S 13 24 7 13 1019.9 1019.9 12.4
27/04:00pm 18.5 16.9 15.0 80 2.0 SSW 17 30 9 16 1019.5 1019.5 0.0
27/03:30pm 22.2 23.2 18.6 80 2.3 E 11 19 6 10 1018.4 1018.4 0.0
27/03:00pm 22.9 24.2 18.4 76 2.8 ENE 9 15 5 8 1018.4 1018.4 0.0
27/02:30pm 23.1 24.9 18.8 77 2.7 NNE 7 13 4 7 1018.7 1018.7 0.0
27/02:00pm 22.9 24.3 18.7 77 2.6 NE 9 13 5 7 1018.7 1018.7 0.0
27/01:30pm 22.4 23.2 17.3 73 3.1 NE 9 15 5 8 1018.8 1018.8 0.0
27/01:00pm 23.2 24.6 18.7 76 2.8 ENE 9 13 5 7 1019.2 1019.2 0.0
27/12:30pm 22.8 23.7 18.3 76 2.8 NE 11 15 6 8 1019.6 1019.6 0.0
27/12:00pm 23.2 25.0 18.7 76 2.8 NE 7 9 4 5 1019.9 1019.9 0.0
27/11:30am 22.9 24.5 18.2 75 2.9 NE 7 11 4 6 1020.4 1020.4 0.0
27/11:00am 22.5 23.3 17.4 73 3.1 ESE 9 13 5 7 1020.8 1020.8 0.0
27/10:30am 23.1 25.2 18.2 74 3.1 NNE 4 6 2 3 1021.0 1021.0 0.0
27/10:00am 22.0 24.3 19.4 85 1.6 NE 6 7 3 4 1021.2 1021.2 0.0
27/09:30am 20.8 22.6 18.7 88 1.3 NNE 7 11 4 6 1021.1 1021.1 0.0
27/09:00am 20.5 22.3 18.3 87 1.4 NNE 6 9 3 5 1021.2 1021.2 0.0
27/08:30am 20.5 22.4 18.6 89 1.2 NNE 6 7 3 4 1021.3 1021.3 0.0
27/08:00am 19.5 22.5 18.5 94 0.6 CALM 0 4 0 2 1021.3 1021.3 0.0
27/07:30am 19.1 20.9 18.4 96 0.4 NW 6 9 3 5 1021.3 1021.3 0.0
27/07:00am 19.0 21.0 18.8 99 0.1 NNW 6 7 3 4 1021.2 1021.2 0.0
27/06:30am 18.4 20.0 18.2 99 0.1 NW 7 9 4 5 1021.0 1021.0 0.0
27/06:00am 18.6 20.4 18.4 99 0.1 NW 6 9 3 5 1020.6 1020.6 0.0
27/05:30am 18.6 20.4 18.4 99 0.1 WNW 6 9 3 5 1020.3 1020.3 0.0
27/05:00am 18.6 21.2 18.4 99 0.1 NW 2 7 1 4 1020.3 1020.3 0.0
27/04:30am 18.7 21.3 18.4 98 0.2 NW 2 6 1 3 1020.2 1020.2 0.0
27/04:00am 18.9 20.9 18.7 99 0.1 N 6 7 3 4 1020.1 1020.1 0.0
27/03:30am 19.1 20.8 18.6 97 0.3 NW 7 11 4 6 1020.0 1020.0 0.0
27/03:00am 19.1 20.9 18.4 96 0.4 NW 6 7 3 4 1020.0 1020.0 0.0
27/02:30am 19.2 21.1 18.5 96 0.4 NW 6 7 3 4 1020.3 1020.3 0.0
27/02:00am 19.1 21.0 18.6 97 0.3 NNW 6 9 3 5 1020.4 1020.4 0.0
27/01:30am 19.4 20.8 18.6 95 0.5 NW 9 13 5 7 1020.8 1020.8 0.0
27/01:00am 19.8 21.3 18.8 94 0.6 NW 9 15 5 8 1021.0 1021.0 0.0
27/12:30am 19.5 21.1 18.3 93 0.7 NNW 7 11 4 6 1021.0 1021.0 0.0
27/12:00am 19.8 21.3 18.1 90 1.0 NNW 7 11 4 6 1021.3 1021.3 0.0
 
Date/Time
EST
Temp
°C
App
Temp
°C
Dew
Point
Rel
Hum
%
Delta-T
°C
Wind Press
QNH
hPa
Press
MSL
hPa
Rain
since 9 am
mm
Dir
 
Spd
km/h
Gust
km/h
Spd
kts
Gust
kts
26/11:30pm 20.1 21.7 18.2 89 1.2 NNW 7 11 4 6 1021.7 1021.7 0.0
26/11:00pm 20.3 22.0 18.6 90 1.1 NNW 7 9 4 5 1021.7 1021.7 0.0
26/10:30pm 20.5 21.9 18.6 89 1.2 NW 9 15 5 8 1021.6 1021.6 0.0
26/10:00pm 20.7 21.6 18.5 87 1.4 NNW 11 17 6 9 1021.5 1021.5 0.0
26/09:30pm 20.8 21.7 18.4 86 1.5 NNW 11 17 6 9 1021.4 1021.4 0.0
26/09:00pm 21.0 22.3 18.4 85 1.6 NNW 9 15 5 8 1021.4 1021.4 0.0
26/08:30pm 21.2 22.0 18.2 83 1.9 NNW 11 15 6 8 1021.1 1021.1 0.0
26/08:00pm 21.6 22.6 18.6 83 1.9 NNW 11 17 6 9 1021.0 1021.0 0.0
26/07:30pm 21.2 24.8 19.8 92 0.9 CALM 0 0 0 0 1020.7 1020.7 0.0

Other Formats:

Comma delimited format used in spreadsheet applications
http://www.bom.gov.au/fwo/IDQ60801/IDQ60801.94570.axf

JavaScript Object Notation format (JSON) in row-major order
http://www.bom.gov.au/fwo/IDQ60801/IDQ60801.94570.json